createdAt,value
2022-12-16T00:01:13.962Z,74.82
2022-12-16T00:02:45.589Z,69.89
2022-12-16T00:04:17.062Z,67.55
2022-12-16T00:05:48.426Z,70.21
2022-12-16T00:07:20.084Z,71.25
2022-12-16T00:08:51.989Z,68.61
2022-12-16T00:10:23.552Z,67.50
2022-12-16T00:11:55.060Z,67.58
2022-12-16T00:13:26.469Z,67.78
2022-12-16T00:14:58.203Z,66.95
2022-12-16T00:16:29.933Z,67.20
2022-12-16T00:18:01.373Z,64.61
2022-12-16T00:19:33.050Z,66.16
2022-12-16T00:21:04.471Z,67.25
2022-12-16T00:22:35.746Z,66.07
2022-12-16T00:24:07.394Z,67.29
2022-12-16T00:25:40.229Z,64.26
2022-12-16T00:27:11.599Z,66.13
2022-12-16T00:28:42.918Z,95.95
2022-12-16T00:30:14.116Z,87.17
2022-12-16T00:31:45.715Z,63.71
2022-12-16T00:33:17.177Z,61.75
2022-12-16T00:34:48.666Z,58.51
2022-12-16T00:36:20.133Z,59.78
2022-12-16T00:37:51.676Z,61.56
2022-12-16T00:39:22.946Z,62.81
2022-12-16T00:40:54.363Z,60.83
2022-12-16T00:42:26.621Z,63.34
2022-12-16T00:43:58.359Z,60.61
2022-12-16T00:45:29.818Z,60.82
2022-12-16T00:47:01.397Z,59.30
2022-12-16T00:48:32.974Z,58.95
2022-12-16T00:50:04.500Z,57.76
2022-12-16T00:51:36.033Z,57.81
2022-12-16T00:53:08.346Z,60.91
2022-12-16T00:54:39.688Z,57.95
2022-12-16T00:56:11.212Z,57.22
2022-12-16T00:57:42.694Z,54.00
2022-12-16T00:59:14.217Z,57.23
2022-12-16T01:00:45.826Z,53.37
2022-12-16T01:02:17.450Z,55.69
2022-12-16T01:03:49.246Z,59.30
2022-12-16T01:05:20.731Z,57.31
2022-12-16T01:06:51.986Z,56.92
2022-12-16T01:08:23.629Z,57.80
2022-12-16T01:09:55.097Z,54.91
2022-12-16T01:11:26.516Z,55.12
2022-12-16T01:12:57.815Z,55.27
2022-12-16T01:14:34.094Z,53.11
2022-12-16T01:16:05.753Z,57.85
2022-12-16T01:17:37.491Z,59.22
2022-12-16T01:19:09.236Z,59.12
2022-12-16T01:20:40.668Z,57.68
2022-12-16T01:22:12.031Z,60.32
2022-12-16T01:23:43.564Z,61.24
2022-12-16T01:25:14.999Z,62.40
2022-12-16T01:26:46.315Z,64.34
2022-12-16T01:28:17.726Z,67.45
2022-12-16T01:29:49.306Z,63.77
2022-12-16T01:31:20.605Z,62.62
2022-12-16T01:32:52.157Z,64.54
2022-12-16T01:34:23.752Z,60.72
2022-12-16T01:35:56.243Z,60.52
2022-12-16T01:37:27.856Z,59.54
2022-12-16T01:38:59.390Z,54.92
2022-12-16T01:40:30.997Z,54.56
2022-12-16T01:42:02.348Z,53.93
2022-12-16T01:43:34.327Z,54.20
2022-12-16T01:45:06.108Z,50.44
2022-12-16T01:46:37.353Z,51.92
2022-12-16T01:48:08.844Z,50.27
2022-12-16T01:49:40.196Z,51.58
2022-12-16T01:51:11.703Z,53.08
2022-12-16T01:52:43.361Z,49.32
2022-12-16T01:54:14.856Z,50.63
2022-12-16T01:55:46.311Z,51.28
2022-12-16T01:57:17.900Z,51.22
2022-12-16T01:58:49.644Z,48.79
2022-12-16T02:00:22.514Z,48.81
2022-12-16T02:01:54.278Z,50.18
2022-12-16T02:03:25.971Z,47.92
2022-12-16T02:04:57.498Z,46.21
2022-12-16T02:06:29.045Z,47.16
2022-12-16T02:08:00.581Z,47.25
2022-12-16T02:09:31.970Z,47.96
2022-12-16T02:11:03.480Z,48.43
2022-12-16T02:12:34.743Z,46.49
2022-12-16T02:14:05.997Z,43.37
2022-12-16T02:15:37.377Z,43.28
2022-12-16T02:17:09.055Z,43.49
2022-12-16T02:18:40.372Z,46.36
2022-12-16T02:20:11.581Z,46.70
2022-12-16T02:21:42.994Z,43.93
2022-12-16T02:23:15.116Z,45.21
2022-12-16T02:24:46.496Z,44.15
2022-12-16T02:26:18.187Z,44.18
2022-12-16T02:27:49.873Z,44.97
2022-12-16T02:29:21.469Z,43.12
2022-12-16T02:30:53.157Z,42.78
2022-12-16T02:32:26.924Z,44.81
2022-12-16T02:33:58.446Z,42.84
2022-12-16T02:35:29.858Z,44.71
2022-12-16T02:37:02.759Z,42.50
2022-12-16T02:38:34.438Z,44.41
2022-12-16T02:40:05.920Z,42.93
2022-12-16T02:41:37.693Z,44.75
2022-12-16T02:43:09.201Z,44.22
2022-12-16T02:44:40.844Z,44.93
2022-12-16T02:46:12.522Z,42.50
2022-12-16T02:47:44.381Z,42.23
2022-12-16T02:49:16.364Z,41.67
2022-12-16T02:50:47.762Z,44.25
2022-12-16T02:52:19.271Z,44.02
2022-12-16T02:53:55.697Z,45.64
2022-12-16T02:55:27.235Z,54.96
2022-12-16T02:56:58.755Z,53.27
2022-12-16T02:58:30.267Z,46.35
2022-12-16T03:00:01.510Z,49.09
2022-12-16T03:01:37.840Z,48.19
2022-12-16T03:03:09.434Z,44.49
2022-12-16T03:04:40.967Z,42.99
2022-12-16T03:06:12.271Z,41.24
2022-12-16T03:07:43.673Z,42.60
2022-12-16T03:09:14.989Z,43.42
2022-12-16T03:10:46.520Z,41.33
2022-12-16T03:12:17.920Z,43.89
2022-12-16T03:13:49.595Z,41.85
2022-12-16T03:15:25.790Z,41.04
2022-12-16T03:16:57.428Z,41.51
2022-12-16T03:18:28.881Z,39.88
2022-12-16T03:20:00.613Z,38.43
2022-12-16T03:21:31.947Z,37.66
2022-12-16T03:23:03.535Z,41.52
2022-12-16T03:24:34.826Z,38.03
2022-12-16T03:26:06.235Z,37.24
2022-12-16T03:27:38.019Z,34.79
2022-12-16T03:29:09.569Z,38.76
2022-12-16T03:30:41.075Z,40.69
2022-12-16T03:32:12.637Z,39.37
2022-12-16T03:33:44.345Z,38.52
2022-12-16T03:35:15.456Z,38.43
2022-12-16T03:36:47.027Z,39.09
2022-12-16T03:38:18.369Z,40.27
2022-12-16T03:39:50.096Z,40.02
2022-12-16T03:41:21.513Z,42.55
2022-12-16T03:42:53.014Z,40.14
2022-12-16T03:44:24.386Z,40.44
2022-12-16T03:45:58.269Z,41.45
2022-12-16T03:47:30.205Z,44.24
2022-12-16T03:49:01.562Z,41.26
2022-12-16T03:50:33.066Z,42.17
2022-12-16T03:52:04.524Z,41.62
2022-12-16T03:53:36.295Z,42.48
2022-12-16T03:55:07.736Z,38.85
2022-12-16T03:56:39.375Z,39.76
2022-12-16T03:58:10.929Z,39.25
2022-12-16T03:59:42.304Z,38.42
2022-12-16T04:01:13.600Z,39.14
2022-12-16T04:02:45.147Z,37.41
2022-12-16T04:04:16.849Z,41.45
2022-12-16T04:05:48.292Z,41.90
2022-12-16T04:07:19.823Z,40.87
2022-12-16T04:08:51.487Z,40.58
2022-12-16T04:10:22.846Z,40.12
2022-12-16T04:11:54.498Z,39.35
2022-12-16T04:13:25.873Z,37.20
2022-12-16T04:14:57.623Z,36.47
2022-12-16T04:16:29.001Z,38.71
2022-12-16T04:18:00.632Z,36.85
2022-12-16T04:19:32.348Z,35.43
2022-12-16T04:21:03.681Z,39.30
2022-12-16T04:22:35.064Z,37.83
2022-12-16T04:24:06.454Z,37.18
2022-12-16T04:25:37.886Z,36.58
2022-12-16T04:27:15.360Z,36.59
2022-12-16T04:28:47.645Z,36.66
2022-12-16T04:30:19.366Z,36.46
2022-12-16T04:31:50.518Z,32.86
2022-12-16T04:33:22.005Z,35.84
2022-12-16T04:34:53.411Z,34.08
2022-12-16T04:36:24.961Z,35.56
2022-12-16T04:37:56.701Z,34.91
2022-12-16T04:39:28.500Z,35.73
2022-12-16T04:40:59.980Z,38.65
2022-12-16T04:42:32.115Z,36.83
2022-12-16T04:44:09.016Z,35.42
2022-12-16T04:46:00.506Z,37.55
2022-12-16T04:47:33.299Z,39.13
2022-12-16T04:49:05.032Z,38.23
2022-12-16T04:50:41.613Z,37.69
2022-12-16T04:52:13.592Z,35.58
2022-12-16T04:53:46.049Z,38.09
2022-12-16T04:55:18.638Z,40.85
2022-12-16T04:56:51.990Z,39.07
2022-12-16T04:58:34.364Z,38.44
2022-12-16T05:00:16.400Z,38.40
2022-12-16T05:01:49.704Z,35.83
2022-12-16T05:03:21.798Z,37.13
2022-12-16T05:04:54.269Z,37.98
2022-12-16T05:06:28.884Z,35.24
2022-12-16T05:08:01.444Z,37.90
2022-12-16T05:09:43.589Z,36.70
2022-12-16T05:11:35.603Z,36.31
2022-12-16T05:13:08.253Z,39.83
2022-12-16T05:14:58.207Z,37.94
2022-12-16T05:16:30.708Z,36.75
2022-12-16T05:18:05.896Z,36.31
2022-12-16T05:19:37.788Z,37.39
2022-12-16T05:21:10.250Z,35.92
2022-12-16T05:22:53.569Z,34.78
2022-12-16T05:24:30.825Z,35.78
2022-12-16T05:26:21.176Z,37.91
2022-12-16T05:27:54.188Z,38.27
2022-12-16T05:29:26.394Z,33.70
2022-12-16T05:30:58.993Z,36.33
2022-12-16T05:32:30.800Z,34.41
2022-12-16T05:34:02.753Z,36.94
2022-12-16T05:35:34.722Z,35.84
2022-12-16T05:37:20.401Z,38.76
2022-12-16T05:38:52.858Z,35.88
2022-12-16T05:40:25.072Z,33.56
2022-12-16T05:41:57.723Z,35.95
2022-12-16T05:43:30.735Z,37.57
2022-12-16T05:45:03.155Z,36.73
2022-12-16T05:46:35.880Z,35.95
2022-12-16T05:48:08.351Z,41.41
2022-12-16T05:50:22.037Z,44.12
2022-12-16T05:51:54.153Z,42.18
2022-12-16T05:53:26.217Z,41.95
2022-12-16T05:54:58.455Z,36.76
2022-12-16T05:56:30.929Z,34.93
2022-12-16T05:58:23.312Z,34.50
2022-12-16T05:59:55.457Z,33.79
2022-12-16T06:01:38.050Z,39.51
2022-12-16T06:03:10.113Z,38.81
2022-12-16T06:04:46.763Z,39.10
2022-12-16T06:06:19.021Z,35.84
2022-12-16T06:08:18.098Z,34.20
2022-12-16T06:09:56.108Z,36.06
2022-12-16T06:11:28.932Z,36.41
2022-12-16T06:13:01.750Z,38.91
2022-12-16T06:14:40.770Z,37.71
2022-12-16T06:16:24.154Z,36.65
2022-12-16T06:17:56.235Z,36.60
2022-12-16T06:19:28.327Z,35.93
2022-12-16T06:21:06.682Z,39.07
2022-12-16T06:22:39.147Z,37.94
2022-12-16T06:24:12.272Z,40.15
2022-12-16T06:25:57.377Z,38.62
2022-12-16T06:27:36.952Z,39.16
2022-12-16T06:29:10.935Z,37.70
2022-12-16T06:30:43.046Z,39.77
2022-12-16T06:32:15.089Z,39.35
2022-12-16T06:33:51.899Z,39.36
2022-12-16T06:35:44.911Z,39.24
2022-12-16T06:37:18.347Z,44.06
2022-12-16T06:38:50.614Z,42.23
2022-12-16T06:40:23.370Z,40.16
2022-12-16T06:41:57.218Z,39.28
2022-12-16T06:43:29.592Z,42.90
2022-12-16T06:45:05.411Z,40.81
2022-12-16T06:46:37.054Z,42.52
2022-12-16T06:48:09.101Z,40.36
2022-12-16T06:49:58.089Z,39.93
2022-12-16T06:51:29.980Z,42.17
2022-12-16T06:53:02.175Z,43.97
2022-12-16T06:54:33.802Z,46.29
2022-12-16T06:56:05.451Z,46.39
2022-12-16T06:57:37.520Z,49.79
2022-12-16T06:59:09.569Z,49.27
2022-12-16T07:00:41.802Z,47.44
2022-12-16T07:02:24.693Z,48.20
2022-12-16T07:03:56.902Z,43.90
2022-12-16T07:05:29.065Z,45.44
2022-12-16T07:07:01.011Z,44.93
2022-12-16T07:08:33.011Z,44.52
2022-12-16T07:10:04.877Z,43.46
2022-12-16T07:11:36.668Z,45.54
2022-12-16T07:13:08.478Z,47.47
2022-12-16T07:14:40.511Z,46.70
2022-12-16T07:16:12.327Z,43.09
2022-12-16T07:17:44.571Z,41.56
2022-12-16T07:19:16.521Z,40.75
2022-12-16T07:20:48.445Z,41.21
2022-12-16T07:22:20.430Z,42.40
2022-12-16T07:23:52.442Z,42.16
2022-12-16T07:25:24.172Z,42.62
2022-12-16T07:27:25.499Z,41.16
2022-12-16T07:28:57.314Z,42.28
2022-12-16T07:30:29.108Z,40.76
2022-12-16T07:32:01.381Z,43.97
2022-12-16T07:33:33.664Z,40.53
2022-12-16T07:35:11.051Z,37.06
2022-12-16T07:36:42.692Z,38.82
2022-12-16T07:38:14.778Z,37.14
2022-12-16T07:39:48.787Z,38.39
2022-12-16T07:41:24.772Z,41.51
2022-12-16T07:42:56.650Z,47.19
2022-12-16T07:44:28.478Z,49.61
2022-12-16T07:46:00.298Z,42.23
2022-12-16T07:47:31.643Z,41.33
2022-12-16T07:49:02.953Z,42.79
2022-12-16T07:50:34.202Z,43.64
2022-12-16T07:52:10.827Z,46.50
2022-12-16T07:53:42.181Z,39.52
2022-12-16T07:55:13.367Z,38.14
2022-12-16T07:56:44.797Z,39.29
2022-12-16T07:58:15.943Z,41.90
2022-12-16T07:59:52.321Z,39.59
2022-12-16T08:01:23.820Z,37.06
2022-12-16T08:02:56.215Z,38.16
2022-12-16T08:04:32.843Z,36.77
2022-12-16T08:06:21.679Z,35.93
2022-12-16T08:07:58.023Z,35.77
2022-12-16T08:09:30.221Z,34.02
2022-12-16T08:11:09.727Z,36.58
2022-12-16T08:12:41.121Z,35.73
2022-12-16T08:14:12.458Z,36.29
2022-12-16T08:15:43.836Z,35.63
2022-12-16T08:17:15.945Z,33.61
2022-12-16T08:18:47.190Z,35.00
2022-12-16T08:20:18.652Z,35.93
2022-12-16T08:21:50.392Z,35.31
2022-12-16T08:23:21.737Z,35.39
2022-12-16T08:24:53.798Z,38.07
2022-12-16T08:26:27.884Z,39.23
2022-12-16T08:27:59.637Z,43.77
2022-12-16T08:29:44.679Z,42.45
2022-12-16T08:31:16.797Z,46.08
2022-12-16T08:32:48.182Z,59.72
2022-12-16T08:34:19.413Z,59.18
2022-12-16T08:35:50.766Z,61.33
2022-12-16T08:37:22.096Z,64.04
2022-12-16T08:38:53.407Z,58.85
2022-12-16T08:40:35.653Z,49.46
2022-12-16T08:42:07.653Z,44.24
2022-12-16T08:43:38.941Z,47.73
2022-12-16T08:45:10.112Z,44.00
2022-12-16T08:46:41.570Z,46.66
2022-12-16T08:48:13.183Z,48.67
2022-12-16T08:49:44.904Z,43.96
2022-12-16T08:51:16.428Z,43.03
2022-12-16T08:52:47.643Z,41.29
2022-12-16T08:54:18.891Z,42.28
2022-12-16T08:55:50.317Z,41.02
2022-12-16T08:57:21.617Z,41.96
2022-12-16T08:58:52.757Z,44.68
2022-12-16T09:00:24.844Z,40.58
2022-12-16T09:02:10.029Z,38.04
2022-12-16T09:03:42.372Z,44.46
2022-12-16T09:05:14.360Z,39.26
2022-12-16T09:06:56.299Z,40.42
2022-12-16T09:08:27.973Z,41.06
2022-12-16T09:09:59.420Z,42.50
2022-12-16T09:11:30.703Z,38.66
2022-12-16T09:13:02.027Z,41.57
2022-12-16T09:14:33.170Z,38.60
2022-12-16T09:16:04.682Z,37.92
2022-12-16T09:17:35.988Z,41.36
2022-12-16T09:19:07.699Z,39.11
2022-12-16T09:20:39.226Z,40.39
2022-12-16T09:22:10.752Z,41.29
2022-12-16T09:23:42.032Z,44.80
2022-12-16T09:25:13.260Z,42.88
2022-12-16T09:26:44.624Z,43.33
2022-12-16T09:28:16.311Z,45.25
2022-12-16T09:29:47.653Z,42.55
2022-12-16T09:31:19.380Z,43.88
2022-12-16T09:32:51.214Z,45.37
2022-12-16T09:34:22.786Z,44.62
2022-12-16T09:35:54.400Z,42.72
2022-12-16T09:37:26.649Z,45.07
2022-12-16T09:38:57.789Z,43.90
2022-12-16T09:40:28.944Z,43.93
2022-12-16T09:42:00.113Z,48.64
2022-12-16T09:43:31.933Z,43.06
2022-12-16T09:45:03.334Z,43.27
2022-12-16T09:46:34.609Z,42.00
2022-12-16T09:48:25.488Z,40.60
2022-12-16T09:49:56.973Z,41.23
2022-12-16T09:51:28.216Z,41.11
2022-12-16T09:52:59.879Z,43.43
2022-12-16T09:54:31.644Z,45.78
2022-12-16T09:56:09.191Z,43.32
2022-12-16T09:57:40.332Z,44.95
2022-12-16T09:59:11.696Z,42.84
2022-12-16T10:00:43.292Z,45.73
2022-12-16T10:02:14.891Z,42.98
2022-12-16T10:03:46.625Z,40.33
2022-12-16T10:05:18.047Z,39.97
2022-12-16T10:06:49.434Z,41.64
2022-12-16T10:08:20.725Z,41.47
2022-12-16T10:09:51.911Z,44.60
2022-12-16T10:11:23.397Z,43.15
2022-12-16T10:12:55.472Z,43.57
2022-12-16T10:14:26.664Z,40.30
2022-12-16T10:15:58.001Z,42.00
2022-12-16T10:17:29.314Z,43.00
2022-12-16T10:19:05.580Z,41.04
2022-12-16T10:20:37.304Z,45.06
2022-12-16T10:22:08.883Z,40.51
2022-12-16T10:23:40.129Z,43.91
2022-12-16T10:25:11.397Z,39.53
2022-12-16T10:26:42.604Z,39.72
2022-12-16T10:28:13.847Z,45.62
2022-12-16T10:29:45.383Z,41.00
2022-12-16T10:31:16.831Z,43.75
2022-12-16T10:32:48.139Z,41.40
2022-12-16T10:34:19.452Z,41.72
2022-12-16T10:35:50.765Z,37.50
2022-12-16T10:37:22.678Z,36.60
2022-12-16T10:38:53.943Z,39.16
2022-12-16T10:40:25.275Z,38.78
2022-12-16T10:41:56.456Z,37.66
2022-12-16T10:43:27.663Z,34.91
2022-12-16T10:44:59.009Z,35.07
2022-12-16T10:46:30.425Z,34.19
2022-12-16T10:48:01.733Z,34.54
2022-12-16T10:49:33.107Z,35.46
2022-12-16T10:51:04.393Z,33.14
2022-12-16T10:52:35.709Z,31.83
2022-12-16T10:54:07.049Z,36.15
2022-12-16T10:55:38.504Z,34.64
2022-12-16T10:57:09.987Z,34.15
2022-12-16T10:58:41.969Z,33.18
2022-12-16T11:00:13.344Z,34.77
2022-12-16T11:03:46.482Z,32.88
2022-12-16T11:05:18.561Z,33.78
2022-12-16T11:06:49.865Z,33.56
2022-12-16T11:08:22.391Z,33.74
2022-12-16T11:09:53.681Z,33.77
2022-12-16T11:11:25.699Z,33.92
2022-12-16T11:12:57.520Z,34.64
2022-12-16T11:14:34.240Z,34.68
2022-12-16T11:16:10.895Z,31.99
2022-12-16T11:17:42.864Z,33.54
2022-12-16T11:19:14.671Z,30.68
2022-12-16T11:20:46.179Z,29.00
2022-12-16T11:22:17.761Z,27.56
2022-12-16T11:23:49.025Z,26.96
2022-12-16T11:25:20.337Z,26.10
2022-12-16T11:26:51.956Z,24.24
2022-12-16T11:28:24.072Z,25.26
2022-12-16T11:30:15.280Z,28.02
2022-12-16T11:31:55.228Z,24.54
2022-12-16T11:33:31.625Z,28.15
2022-12-16T11:35:03.235Z,26.07
2022-12-16T11:36:34.663Z,26.92
2022-12-16T11:38:06.003Z,25.16
2022-12-16T11:39:37.331Z,26.09
2022-12-16T11:41:08.531Z,25.52
2022-12-16T11:42:39.885Z,26.44
2022-12-16T11:44:11.236Z,27.55
2022-12-16T11:45:42.461Z,26.26
2022-12-16T11:47:13.670Z,39.41
2022-12-16T11:48:45.390Z,33.08
2022-12-16T11:50:16.645Z,27.31
2022-12-16T11:51:48.023Z,26.20
2022-12-16T11:53:24.774Z,28.21
2022-12-16T11:54:56.019Z,26.48
2022-12-16T11:56:28.084Z,25.15
2022-12-16T11:57:59.610Z,28.14
2022-12-16T11:59:30.994Z,25.31
2022-12-16T12:01:07.199Z,28.22
2022-12-16T12:02:38.715Z,27.48
2022-12-16T12:04:10.097Z,24.63
2022-12-16T12:05:42.170Z,28.36
2022-12-16T12:07:13.408Z,27.76
2022-12-16T12:08:44.675Z,27.80
2022-12-16T12:10:15.935Z,27.81
2022-12-16T12:11:47.423Z,29.40
2022-12-16T12:13:18.697Z,27.68
2022-12-16T12:14:50.155Z,30.40
2022-12-16T12:16:22.425Z,31.51
2022-12-16T12:17:53.742Z,29.28
2022-12-16T12:19:26.888Z,30.25
2022-12-16T12:20:58.107Z,28.02
2022-12-16T12:22:29.390Z,30.73
2022-12-16T12:24:06.505Z,27.87
2022-12-16T12:25:37.983Z,26.29
2022-12-16T12:27:14.447Z,28.58
2022-12-16T12:28:45.687Z,28.07
2022-12-16T12:30:16.965Z,26.88
2022-12-16T12:31:48.360Z,25.91
2022-12-16T12:33:19.607Z,27.02
2022-12-16T12:34:51.123Z,25.60
2022-12-16T12:36:22.489Z,22.99
2022-12-16T12:37:53.966Z,25.05
2022-12-16T12:39:27.382Z,23.96
2022-12-16T12:40:58.698Z,24.46
2022-12-16T12:42:30.284Z,29.59
2022-12-16T12:44:01.923Z,24.81
2022-12-16T12:45:33.516Z,26.53
2022-12-16T12:47:04.970Z,44.21
2022-12-16T12:48:36.232Z,36.38
2022-12-16T12:50:07.639Z,31.01
2022-12-16T12:51:38.972Z,24.36
2022-12-16T12:53:15.645Z,20.91
2022-12-16T12:54:46.915Z,21.06
2022-12-16T12:56:18.573Z,23.04
2022-12-16T12:57:50.152Z,21.43
2022-12-16T12:59:22.538Z,22.94
2022-12-16T13:00:53.862Z,24.14
2022-12-16T13:02:39.095Z,23.33
2022-12-16T13:04:10.598Z,23.89
2022-12-16T13:05:41.986Z,23.97
2022-12-16T13:07:13.708Z,26.95
2022-12-16T13:08:45.238Z,25.00
2022-12-16T13:10:16.588Z,25.86
2022-12-16T13:11:47.812Z,29.83
2022-12-16T13:13:19.173Z,44.55
2022-12-16T13:14:50.574Z,45.83
2022-12-16T13:16:22.893Z,46.27
2022-12-16T13:17:54.525Z,41.80
2022-12-16T13:19:25.859Z,45.60
2022-12-16T13:20:57.552Z,47.73
2022-12-16T13:22:28.988Z,46.64
2022-12-16T13:24:00.298Z,50.08
2022-12-16T13:25:31.699Z,51.01
2022-12-16T13:27:02.987Z,50.91
2022-12-16T13:28:34.421Z,49.79
2022-12-16T13:30:05.795Z,49.43
2022-12-16T13:31:37.205Z,50.79
2022-12-16T13:33:08.546Z,52.46
2022-12-16T13:34:40.002Z,47.73
2022-12-16T13:36:11.167Z,52.00
2022-12-16T13:38:15.121Z,53.18
2022-12-16T13:39:47.051Z,55.69
2022-12-16T13:41:23.620Z,55.16
2022-12-16T13:42:55.273Z,55.74
2022-12-16T13:44:27.223Z,56.71
2022-12-16T13:45:59.185Z,56.95
2022-12-16T13:47:30.870Z,53.29
2022-12-16T13:49:02.043Z,58.62
2022-12-16T13:50:33.405Z,61.53
2022-12-16T13:52:04.856Z,57.03
2022-12-16T13:53:36.167Z,56.96
2022-12-16T13:55:07.583Z,57.49
2022-12-16T13:56:38.824Z,58.24
2022-12-16T13:58:09.960Z,58.75
2022-12-16T13:59:41.444Z,57.08
2022-12-16T14:01:12.891Z,56.73
2022-12-16T14:02:49.468Z,54.49
2022-12-16T14:04:20.989Z,55.22
2022-12-16T14:05:52.374Z,59.08
2022-12-16T14:07:24.941Z,54.71
2022-12-16T14:08:56.235Z,56.65
2022-12-16T14:10:27.699Z,60.95
2022-12-16T14:11:59.247Z,57.78
2022-12-16T14:13:30.772Z,54.56
2022-12-16T14:15:02.112Z,56.47
2022-12-16T14:16:33.343Z,54.97
2022-12-16T14:18:05.026Z,56.27
2022-12-16T14:19:36.300Z,57.23
2022-12-16T14:21:07.948Z,56.97
2022-12-16T14:22:39.503Z,56.50
2022-12-16T14:24:10.942Z,55.21
2022-12-16T14:25:42.103Z,55.55
2022-12-16T14:27:13.543Z,59.80
2022-12-16T14:28:44.773Z,58.34
2022-12-16T14:30:16.065Z,57.26
2022-12-16T14:31:52.737Z,54.92
2022-12-16T14:33:24.752Z,57.63
2022-12-16T14:34:56.230Z,60.16
2022-12-16T14:36:28.761Z,60.93
2022-12-16T14:38:00.342Z,60.51
2022-12-16T14:39:32.501Z,61.96
2022-12-16T14:41:03.744Z,57.33
2022-12-16T14:42:35.101Z,64.20
2022-12-16T14:44:06.389Z,62.58
2022-12-16T14:45:37.890Z,62.16
2022-12-16T14:47:09.479Z,61.21
2022-12-16T14:48:47.648Z,62.41
2022-12-16T14:50:20.636Z,61.97
2022-12-16T14:51:51.940Z,64.28
2022-12-16T14:53:23.629Z,59.69
2022-12-16T14:54:54.899Z,60.61
2022-12-16T14:56:26.468Z,64.09
2022-12-16T14:57:57.817Z,64.73
2022-12-16T14:59:29.166Z,62.90
2022-12-16T15:01:00.635Z,67.53
2022-12-16T15:02:32.432Z,64.19
2022-12-16T15:04:04.350Z,65.24
2022-12-16T15:05:36.747Z,67.36
2022-12-16T15:07:08.372Z,67.94
2022-12-16T15:08:40.993Z,67.58
2022-12-16T15:10:12.146Z,67.97
2022-12-16T15:11:43.445Z,65.38
2022-12-16T15:13:14.650Z,69.55
2022-12-16T15:15:11.091Z,67.65
2022-12-16T15:16:42.660Z,66.34
2022-12-16T15:18:13.845Z,66.84
2022-12-16T15:19:45.374Z,69.99
2022-12-16T15:21:26.554Z,68.63
2022-12-16T15:22:57.943Z,68.47
2022-12-16T15:24:29.185Z,68.14
2022-12-16T15:26:04.095Z,66.33
2022-12-16T15:27:35.571Z,67.81
2022-12-16T15:29:07.123Z,72.22
2022-12-16T15:30:38.310Z,69.95
2022-12-16T15:32:09.564Z,67.01
2022-12-16T15:33:40.853Z,68.73
2022-12-16T15:35:24.546Z,72.50
2022-12-16T15:36:55.936Z,65.72
2022-12-16T15:38:32.204Z,69.50
2022-12-16T15:40:03.516Z,67.41
2022-12-16T15:41:34.763Z,69.28
2022-12-16T15:43:06.033Z,69.68
2022-12-16T15:44:37.460Z,70.64
2022-12-16T15:46:08.981Z,70.23
2022-12-16T15:47:40.392Z,68.79
2022-12-16T15:49:11.572Z,68.07
2022-12-16T15:50:42.848Z,66.26
2022-12-16T15:52:14.065Z,67.06
2022-12-16T15:54:17.385Z,70.51
2022-12-16T15:55:48.696Z,67.09
2022-12-16T15:57:20.162Z,69.51
2022-12-16T15:58:51.471Z,69.25
2022-12-16T16:00:23.165Z,70.30
2022-12-16T16:01:57.239Z,69.84
2022-12-16T16:03:31.416Z,71.71
2022-12-16T16:05:02.940Z,72.55
2022-12-16T16:06:34.261Z,69.40
2022-12-16T16:08:24.471Z,69.41
2022-12-16T16:10:00.962Z,71.05
2022-12-16T16:11:32.481Z,71.26
2022-12-16T16:13:13.722Z,70.83
2022-12-16T16:14:45.253Z,70.35
2022-12-16T16:16:26.843Z,72.18
2022-12-16T16:18:10.680Z,76.14
2022-12-16T16:19:42.972Z,74.72
2022-12-16T16:21:14.209Z,77.53
2022-12-16T16:22:55.493Z,76.85
2022-12-16T16:24:26.760Z,80.35
2022-12-16T16:26:03.608Z,80.18
2022-12-16T16:27:35.500Z,76.24
2022-12-16T16:29:07.199Z,76.91
2022-12-16T16:30:38.389Z,73.63
2022-12-16T16:32:19.931Z,70.95
2022-12-16T16:33:51.534Z,75.36
2022-12-16T16:35:22.764Z,73.37
2022-12-16T16:36:54.541Z,71.28
2022-12-16T16:38:35.834Z,68.03
2022-12-16T16:40:07.013Z,71.41
2022-12-16T16:41:38.194Z,70.88
2022-12-16T16:43:14.479Z,74.43
2022-12-16T16:45:06.060Z,68.97
2022-12-16T16:46:37.442Z,71.88
2022-12-16T16:48:08.911Z,71.28
2022-12-16T16:49:50.150Z,69.84
2022-12-16T16:51:21.556Z,69.09
2022-12-16T16:53:07.808Z,75.86
2022-12-16T16:54:44.741Z,71.79
2022-12-16T16:56:20.050Z,79.20
2022-12-16T16:57:51.868Z,73.88
2022-12-16T16:59:23.341Z,74.56
2022-12-16T17:01:04.849Z,72.76
2022-12-16T17:02:40.903Z,77.22
2022-12-16T17:04:13.591Z,96.38
2022-12-16T17:05:45.079Z,89.26
2022-12-16T17:07:21.777Z,95.69
2022-12-16T17:08:58.003Z,122.12
2022-12-16T17:10:43.598Z,115.75
2022-12-16T17:12:20.386Z,96.33
2022-12-16T17:13:57.301Z,92.42
2022-12-16T17:15:37.372Z,85.58
2022-12-16T17:17:19.775Z,86.16
2022-12-16T17:18:52.644Z,82.39
2022-12-16T17:20:24.032Z,84.15
2022-12-16T17:21:55.603Z,85.25
2022-12-16T17:23:26.923Z,83.28
2022-12-16T17:24:58.408Z,88.06
2022-12-16T17:26:30.234Z,86.81
2022-12-16T17:28:02.217Z,83.01
2022-12-16T17:29:33.741Z,80.02
2022-12-16T17:31:10.630Z,80.90
2022-12-16T17:32:47.733Z,81.34
2022-12-16T17:34:19.292Z,79.80
2022-12-16T17:35:50.475Z,85.08
2022-12-16T17:37:26.851Z,91.70
2022-12-16T17:38:58.152Z,87.65
2022-12-16T17:40:29.616Z,93.87
2022-12-16T17:42:24.071Z,95.27
2022-12-16T17:43:55.297Z,89.57
2022-12-16T17:45:26.466Z,93.79
2022-12-16T17:46:57.931Z,91.21
2022-12-16T17:48:29.557Z,87.33
2022-12-16T17:50:00.897Z,84.44
2022-12-16T17:51:32.253Z,85.66
2022-12-16T17:53:03.659Z,83.73
2022-12-16T17:54:35.421Z,84.59
2022-12-16T17:56:07.547Z,85.79
2022-12-16T17:57:39.273Z,86.22
2022-12-16T17:59:11.297Z,84.21
2022-12-16T18:00:42.814Z,83.71
2022-12-16T18:02:20.028Z,80.94
2022-12-16T18:03:51.550Z,78.38
2022-12-16T18:05:22.836Z,78.97
2022-12-16T18:06:54.139Z,80.78
2022-12-16T18:08:35.450Z,79.25
2022-12-16T18:10:06.694Z,83.30
2022-12-16T18:11:38.875Z,82.21
2022-12-16T18:13:10.268Z,81.66
2022-12-16T18:14:41.535Z,84.43
2022-12-16T18:16:12.785Z,83.34
2022-12-16T18:17:44.194Z,81.01
2022-12-16T18:19:15.461Z,82.66
2022-12-16T18:20:56.752Z,83.49
2022-12-16T18:22:28.384Z,80.50
2022-12-16T18:24:00.079Z,81.54
2022-12-16T18:25:31.787Z,83.89
2022-12-16T18:27:08.253Z,90.09
2022-12-16T18:28:39.584Z,94.81
2022-12-16T18:30:11.055Z,87.78
2022-12-16T18:31:42.290Z,93.34
2022-12-16T18:33:13.653Z,97.25
2022-12-16T18:34:55.160Z,93.65
2022-12-16T18:36:26.485Z,90.44
2022-12-16T18:38:10.079Z,85.62
2022-12-16T18:39:44.860Z,90.85
2022-12-16T18:41:16.129Z,91.25
2022-12-16T18:42:47.489Z,93.14
2022-12-16T18:44:20.127Z,91.63
2022-12-16T18:45:51.530Z,84.87
2022-12-16T18:47:40.586Z,92.84
2022-12-16T18:49:12.567Z,89.81
2022-12-16T18:50:51.999Z,89.75
2022-12-16T18:52:23.483Z,100.01
2022-12-16T18:53:54.753Z,101.87
2022-12-16T18:55:27.631Z,95.46
2022-12-16T18:57:09.161Z,95.59
2022-12-16T18:58:51.965Z,89.56
2022-12-16T19:00:23.857Z,89.19
2022-12-16T19:02:05.706Z,87.26
2022-12-16T19:03:47.100Z,82.40
2022-12-16T19:05:23.486Z,83.93
2022-12-16T19:07:18.443Z,86.81
2022-12-16T19:08:50.974Z,85.01
2022-12-16T19:10:22.602Z,83.52
2022-12-16T19:11:59.645Z,85.82
2022-12-16T19:13:31.317Z,84.42
2022-12-16T19:15:02.716Z,94.38
2022-12-16T19:16:34.167Z,89.42
2022-12-16T19:18:05.755Z,91.20
2022-12-16T19:19:37.274Z,89.53
2022-12-16T19:21:08.918Z,99.64
2022-12-16T19:22:40.993Z,107.25
2022-12-16T19:24:12.114Z,112.61
2022-12-16T19:25:43.711Z,113.28
2022-12-16T19:27:25.302Z,115.69
2022-12-16T19:28:56.582Z,127.25
2022-12-16T19:30:33.076Z,130.53
2022-12-16T19:32:04.981Z,150.35
2022-12-16T19:33:50.673Z,165.23
2022-12-16T19:35:24.596Z,192.97
2022-12-16T19:36:56.043Z,161.50
2022-12-16T19:38:33.919Z,188.62
2022-12-16T19:40:05.115Z,198.75
2022-12-16T19:41:36.600Z,207.93
2022-12-16T19:43:07.840Z,211.93
2022-12-16T19:44:39.217Z,203.12
2022-12-16T19:46:10.779Z,202.11
2022-12-16T19:47:42.155Z,173.45
2022-12-16T19:49:13.614Z,165.54
2022-12-16T19:50:45.159Z,188.51
2022-12-16T19:52:16.726Z,199.20
2022-12-16T19:53:48.480Z,196.88
2022-12-16T19:55:20.438Z,204.61
2022-12-16T19:56:52.056Z,160.46
2022-12-16T19:58:23.612Z,204.71
2022-12-16T19:59:55.114Z,184.60
2022-12-16T20:01:28.257Z,249.77